This is the latest recevied weather packets stored in our database for station/object IW3HBX-3. If no packets are shown the sender has not sent any weather packets the latest 1 day(s).
| Time | Temp. | Humidity | Pressure | Rain* | Wind** | Luminosity | Snow |
|---|---|---|---|---|---|---|---|
| 1778078706 | 17.22° C | 90% | 1010.1 hPa | 0 mm | - | 171 W/m² | - |
| 1778078106 | 16.67° C | 91% | 1010.1 hPa | 0.25 mm | - | 226 W/m² | - |
| 1778075105 | 16.11° C | 93% | 1010.3 hPa | 3.05 mm | - | 140 W/m² | - |
| 1778074505 | 16.11° C | 93% | 1010.5 hPa | 2.79 mm | - | 99 W/m² | - |
| 1778074205 | 16.11° C | 92% | 1010.5 hPa | 2.29 mm | - | 78 W/m² | - |
| 1778071205 | 17.78° C | 85% | 1010.7 hPa | 0 mm | - | 110 W/m² | - |
| 1778070605 | 17.78° C | 83% | 1010.7 hPa | 0 mm | - | 91 W/m² | - |
| 1778070305 | 17.78° C | 81% | 1010.8 hPa | 0 mm | - | 71 W/m² | - |
| 1778067004 | 17.22° C | 83% | 1011.2 hPa | 0 mm | - | 351 W/m² | - |
| 1778066704 | 17.22° C | 83% | 1011.3 hPa | 0 mm | - | 397 W/m² | - |
| 1778066404 | 17.22° C | 85% | 1011.3 hPa | 0 mm | - | 305 W/m² | - |
| 1778063790 | 16.67° C | 86% | 1011.6 hPa | 0.76 mm | - | 130 W/m² | - |
| 1778063103 | 16.67° C | 86% | 1011.7 hPa | 0.76 mm | - | 171 W/m² | - |
| 1778063008 | 16.67° C | 88% | 1011.6 hPa | 0.76 mm | - | 235 W/m² | - |
| 1778062803 | 16.67° C | 88% | 1011.6 hPa | 0.76 mm | - | 235 W/m² | - |
| 1778060103 | 17.22° C | 84% | 1011.7 hPa | 0 mm | - | 121 W/m² | - |
| 1778056504 | 17.22° C | 83% | 1011.3 hPa | 0 mm | - | 253 W/m² | - |
| 1778055904 | 17.22° C | 84% | 1011.4 hPa | 0 mm | - | 269 W/m² | - |
| 1778055304 | 17.22° C | 87% | 1011.3 hPa | 0 mm | - | 304 W/m² | - |
| 1778052905 | 15.56° C | 93% | 1011.5 hPa | 0 mm | - | 215 W/m² | - |
| 1778052605 | 15.56° C | 93% | 1011.4 hPa | 0 mm | - | 206 W/m² | - |
| 1778052305 | 15.56° C | 93% | 1011.5 hPa | 0 mm | - | 209 W/m² | - |
| 1778052005 | 15° C | 93% | 1011.5 hPa | 0 mm | - | 244 W/m² | - |
| 1778049605 | 14.44° C | 94% | 1011.5 hPa | 0.25 mm | - | 122 W/m² | - |
| 1778049305 | 14.44° C | 94% | 1011.6 hPa | 0.25 mm | - | 45 W/m² | - |
* Rain latest hour (hover to see other rain measurements)
** Current wind speed in m/s (hover to see current wind gust speed)